sensor_id;sensor_type;location;lat;lon;timestamp;P1;durP1;ratioP1;P2;durP2;ratioP2
5688;SDS011;2869;50.432;8.680;2022-07-21T00:00:20;28.43;;;20.03;;
5688;SDS011;2869;50.432;8.680;2022-07-21T00:02:48;31.10;;;19.27;;
5688;SDS011;2869;50.432;8.680;2022-07-21T00:05:15;22.60;;;17.73;;
5688;SDS011;2869;50.432;8.680;2022-07-21T00:07:42;30.73;;;19.20;;
5688;SDS011;2869;50.432;8.680;2022-07-21T00:10:10;24.23;;;18.47;;
5688;SDS011;2869;50.432;8.680;2022-07-21T00:12:37;24.40;;;18.67;;
5688;SDS011;2869;50.432;8.680;2022-07-21T00:15:04;25.20;;;19.10;;
5688;SDS011;2869;50.432;8.680;2022-07-21T00:17:32;26.07;;;19.57;;
5688;SDS011;2869;50.432;8.680;2022-07-21T00:19:59;22.57;;;18.57;;
5688;SDS011;2869;50.432;8.680;2022-07-21T00:22:26;26.63;;;18.63;;
5688;SDS011;2869;50.432;8.680;2022-07-21T00:24:53;23.00;;;19.40;;
5688;SDS011;2869;50.432;8.680;2022-07-21T00:27:21;28.43;;;20.80;;
5688;SDS011;2869;50.432;8.680;2022-07-21T00:29:48;28.90;;;21.60;;
5688;SDS011;2869;50.432;8.680;2022-07-21T00:32:14;33.93;;;22.63;;
5688;SDS011;2869;50.432;8.680;2022-07-21T00:34:41;27.00;;;21.00;;
5688;SDS011;2869;50.432;8.680;2022-07-21T00:37:09;28.50;;;21.40;;
5688;SDS011;2869;50.432;8.680;2022-07-21T00:39:35;34.53;;;21.17;;
5688;SDS011;2869;50.432;8.680;2022-07-21T00:42:02;33.33;;;21.10;;
5688;SDS011;2869;50.432;8.680;2022-07-21T00:44:30;25.67;;;21.03;;
5688;SDS011;2869;50.432;8.680;2022-07-21T00:46:57;29.73;;;21.63;;
5688;SDS011;2869;50.432;8.680;2022-07-21T00:49:24;32.00;;;21.77;;
5688;SDS011;2869;50.432;8.680;2022-07-21T00:51:52;24.00;;;18.93;;
5688;SDS011;2869;50.432;8.680;2022-07-21T00:54:19;30.27;;;20.90;;
5688;SDS011;2869;50.432;8.680;2022-07-21T00:56:46;37.87;;;21.03;;
5688;SDS011;2869;50.432;8.680;2022-07-21T00:59:12;37.87;;;23.30;;
5688;SDS011;2869;50.432;8.680;2022-07-21T01:01:42;34.00;;;23.50;;
5688;SDS011;2869;50.432;8.680;2022-07-21T01:04:08;34.07;;;25.10;;
5688;SDS011;2869;50.432;8.680;2022-07-21T01:06:35;31.97;;;25.50;;
5688;SDS011;2869;50.432;8.680;2022-07-21T01:09:02;35.67;;;25.60;;
5688;SDS011;2869;50.432;8.680;2022-07-21T01:11:28;37.53;;;27.53;;
5688;SDS011;2869;50.432;8.680;2022-07-21T01:13:56;37.63;;;27.17;;
5688;SDS011;2869;50.432;8.680;2022-07-21T01:16:23;37.00;;;27.43;;
5688;SDS011;2869;50.432;8.680;2022-07-21T01:18:51;39.23;;;28.37;;
5688;SDS011;2869;50.432;8.680;2022-07-21T01:21:28;44.10;;;30.47;;
5688;SDS011;2869;50.432;8.680;2022-07-21T01:23:56;40.23;;;29.50;;
5688;SDS011;2869;50.432;8.680;2022-07-21T01:26:23;42.43;;;31.87;;
5688;SDS011;2869;50.432;8.680;2022-07-21T01:28:50;45.80;;;31.33;;
5688;SDS011;2869;50.432;8.680;2022-07-21T01:31:17;47.97;;;32.40;;
5688;SDS011;2869;50.432;8.680;2022-07-21T01:33:44;49.10;;;33.97;;
5688;SDS011;2869;50.432;8.680;2022-07-21T01:36:11;49.87;;;32.77;;
5688;SDS011;2869;50.432;8.680;2022-07-21T01:38:39;43.00;;;30.57;;
5688;SDS011;2869;50.432;8.680;2022-07-21T01:41:23;42.90;;;32.73;;
5688;SDS011;2869;50.432;8.680;2022-07-21T01:43:59;50.53;;;33.57;;
5688;SDS011;2869;50.432;8.680;2022-07-21T01:46:27;49.53;;;32.70;;
5688;SDS011;2869;50.432;8.680;2022-07-21T01:48:55;46.03;;;34.30;;
5688;SDS011;2869;50.432;8.680;2022-07-21T01:51:22;53.40;;;32.80;;
5688;SDS011;2869;50.432;8.680;2022-07-21T01:53:50;56.73;;;32.03;;
5688;SDS011;2869;50.432;8.680;2022-07-21T01:56:18;45.93;;;32.17;;
5688;SDS011;2869;50.432;8.680;2022-07-21T01:58:45;38.10;;;28.40;;
5688;SDS011;2869;50.432;8.680;2022-07-21T02:01:12;42.30;;;29.73;;
5688;SDS011;2869;50.432;8.680;2022-07-21T02:03:40;37.77;;;23.33;;
5688;SDS011;2869;50.432;8.680;2022-07-21T02:06:06;40.43;;;22.63;;
5688;SDS011;2869;50.432;8.680;2022-07-21T02:08:33;28.03;;;18.13;;
5688;SDS011;2869;50.432;8.680;2022-07-21T02:11:02;30.67;;;15.10;;
5688;SDS011;2869;50.432;8.680;2022-07-21T02:13:30;21.43;;;14.40;;
5688;SDS011;2869;50.432;8.680;2022-07-21T02:15:56;17.17;;;13.90;;
5688;SDS011;2869;50.432;8.680;2022-07-21T02:18:23;27.60;;;13.67;;
5688;SDS011;2869;50.432;8.680;2022-07-21T02:20:49;21.67;;;13.23;;
5688;SDS011;2869;50.432;8.680;2022-07-21T02:23:17;16.60;;;12.20;;
5688;SDS011;2869;50.432;8.680;2022-07-21T02:25:44;16.03;;;12.30;;
5688;SDS011;2869;50.432;8.680;2022-07-21T02:28:12;20.13;;;11.97;;
5688;SDS011;2869;50.432;8.680;2022-07-21T02:30:39;17.57;;;12.60;;
5688;SDS011;2869;50.432;8.680;2022-07-21T02:33:06;19.77;;;12.07;;
5688;SDS011;2869;50.432;8.680;2022-07-21T02:35:33;13.20;;;11.70;;
5688;SDS011;2869;50.432;8.680;2022-07-21T02:38:00;16.70;;;11.43;;
5688;SDS011;2869;50.432;8.680;2022-07-21T02:40:26;18.40;;;11.63;;
5688;SDS011;2869;50.432;8.680;2022-07-21T02:42:53;16.70;;;11.97;;
5688;SDS011;2869;50.432;8.680;2022-07-21T02:45:21;16.90;;;12.33;;
5688;SDS011;2869;50.432;8.680;2022-07-21T02:47:49;16.37;;;12.30;;
5688;SDS011;2869;50.432;8.680;2022-07-21T02:50:17;15.80;;;11.57;;
5688;SDS011;2869;50.432;8.680;2022-07-21T02:52:43;15.07;;;11.80;;
5688;SDS011;2869;50.432;8.680;2022-07-21T02:55:10;13.00;;;11.60;;
5688;SDS011;2869;50.432;8.680;2022-07-21T02:57:37;17.97;;;12.10;;
5688;SDS011;2869;50.432;8.680;2022-07-21T03:00:04;15.10;;;12.70;;
5688;SDS011;2869;50.432;8.680;2022-07-21T03:02:33;20.27;;;14.13;;
5688;SDS011;2869;50.432;8.680;2022-07-21T03:05:00;20.80;;;13.37;;
5688;SDS011;2869;50.432;8.680;2022-07-21T03:07:27;19.13;;;13.67;;
5688;SDS011;2869;50.432;8.680;2022-07-21T03:09:54;15.20;;;12.10;;
5688;SDS011;2869;50.432;8.680;2022-07-21T03:12:21;18.37;;;13.47;;
5688;SDS011;2869;50.432;8.680;2022-07-21T03:14:47;15.33;;;12.37;;
5688;SDS011;2869;50.432;8.680;2022-07-21T03:17:14;15.53;;;12.53;;
5688;SDS011;2869;50.432;8.680;2022-07-21T03:19:42;14.73;;;11.90;;
5688;SDS011;2869;50.432;8.680;2022-07-21T03:22:09;16.47;;;11.63;;
5688;SDS011;2869;50.432;8.680;2022-07-21T03:24:35;14.90;;;11.57;;
5688;SDS011;2869;50.432;8.680;2022-07-21T03:27:02;16.30;;;11.30;;
5688;SDS011;2869;50.432;8.680;2022-07-21T03:29:29;14.70;;;10.83;;
5688;SDS011;2869;50.432;8.680;2022-07-21T03:31:55;18.23;;;11.50;;
5688;SDS011;2869;50.432;8.680;2022-07-21T03:34:22;12.80;;;10.57;;
5688;SDS011;2869;50.432;8.680;2022-07-21T03:36:50;15.53;;;10.90;;
5688;SDS011;2869;50.432;8.680;2022-07-21T03:39:16;15.37;;;10.90;;
5688;SDS011;2869;50.432;8.680;2022-07-21T03:41:43;14.50;;;11.17;;
5688;SDS011;2869;50.432;8.680;2022-07-21T03:44:10;17.80;;;10.97;;
5688;SDS011;2869;50.432;8.680;2022-07-21T03:46:36;13.00;;;11.60;;
5688;SDS011;2869;50.432;8.680;2022-07-21T03:49:03;14.77;;;11.50;;
5688;SDS011;2869;50.432;8.680;2022-07-21T03:51:30;14.27;;;11.70;;
5688;SDS011;2869;50.432;8.680;2022-07-21T03:53:57;12.20;;;10.40;;
5688;SDS011;2869;50.432;8.680;2022-07-21T03:56:26;12.67;;;10.53;;
5688;SDS011;2869;50.432;8.680;2022-07-21T03:58:53;15.87;;;10.33;;
5688;SDS011;2869;50.432;8.680;2022-07-21T04:01:20;10.83;;;9.73;;
5688;SDS011;2869;50.432;8.680;2022-07-21T04:03:46;10.70;;;9.60;;
5688;SDS011;2869;50.432;8.680;2022-07-21T04:06:13;12.00;;;10.03;;
5688;SDS011;2869;50.432;8.680;2022-07-21T04:08:40;15.10;;;10.10;;
5688;SDS011;2869;50.432;8.680;2022-07-21T04:11:08;16.30;;;10.43;;
5688;SDS011;2869;50.432;8.680;2022-07-21T04:13:34;14.10;;;10.07;;
5688;SDS011;2869;50.432;8.680;2022-07-21T04:16:01;11.67;;;10.30;;
5688;SDS011;2869;50.432;8.680;2022-07-21T04:18:28;12.60;;;9.90;;
5688;SDS011;2869;50.432;8.680;2022-07-21T04:20:54;10.67;;;9.53;;
5688;SDS011;2869;50.432;8.680;2022-07-21T04:23:21;11.73;;;10.53;;
5688;SDS011;2869;50.432;8.680;2022-07-21T04:25:48;15.40;;;10.40;;
5688;SDS011;2869;50.432;8.680;2022-07-21T04:28:16;11.47;;;9.60;;
5688;SDS011;2869;50.432;8.680;2022-07-21T04:30:42;13.80;;;10.40;;
5688;SDS011;2869;50.432;8.680;2022-07-21T04:33:09;11.07;;;9.10;;
5688;SDS011;2869;50.432;8.680;2022-07-21T04:35:36;13.67;;;10.23;;
5688;SDS011;2869;50.432;8.680;2022-07-21T04:38:02;13.00;;;9.97;;
5688;SDS011;2869;50.432;8.680;2022-07-21T04:40:29;13.00;;;9.60;;
5688;SDS011;2869;50.432;8.680;2022-07-21T04:42:55;13.90;;;8.17;;
5688;SDS011;2869;50.432;8.680;2022-07-21T04:45:23;12.00;;;8.67;;
5688;SDS011;2869;50.432;8.680;2022-07-21T04:47:51;10.13;;;7.90;;
5688;SDS011;2869;50.432;8.680;2022-07-21T04:50:20;8.80;;;7.90;;
5688;SDS011;2869;50.432;8.680;2022-07-21T04:52:49;9.20;;;8.30;;
5688;SDS011;2869;50.432;8.680;2022-07-21T04:55:16;9.67;;;7.87;;
5688;SDS011;2869;50.432;8.680;2022-07-21T04:57:45;9.53;;;8.50;;
5688;SDS011;2869;50.432;8.680;2022-07-21T05:00:13;9.73;;;7.47;;
5688;SDS011;2869;50.432;8.680;2022-07-21T05:02:43;11.90;;;7.20;;
5688;SDS011;2869;50.432;8.680;2022-07-21T05:05:10;11.00;;;8.67;;
5688;SDS011;2869;50.432;8.680;2022-07-21T05:07:37;11.97;;;8.67;;
5688;SDS011;2869;50.432;8.680;2022-07-21T05:10:04;15.53;;;10.60;;
5688;SDS011;2869;50.432;8.680;2022-07-21T05:12:31;12.57;;;9.70;;
5688;SDS011;2869;50.432;8.680;2022-07-21T05:14:58;17.70;;;10.00;;
5688;SDS011;2869;50.432;8.680;2022-07-21T05:17:24;15.43;;;11.40;;
5688;SDS011;2869;50.432;8.680;2022-07-21T05:19:52;12.23;;;10.60;;
5688;SDS011;2869;50.432;8.680;2022-07-21T05:22:19;14.30;;;10.10;;
5688;SDS011;2869;50.432;8.680;2022-07-21T05:24:46;17.00;;;10.70;;
5688;SDS011;2869;50.432;8.680;2022-07-21T05:27:12;15.30;;;9.93;;
5688;SDS011;2869;50.432;8.680;2022-07-21T05:29:39;13.27;;;11.10;;
5688;SDS011;2869;50.432;8.680;2022-07-21T05:32:05;18.27;;;11.73;;
5688;SDS011;2869;50.432;8.680;2022-07-21T05:34:32;26.20;;;10.57;;
5688;SDS011;2869;50.432;8.680;2022-07-21T05:37:01;12.53;;;9.50;;
5688;SDS011;2869;50.432;8.680;2022-07-21T05:39:28;17.30;;;9.20;;
5688;SDS011;2869;50.432;8.680;2022-07-21T05:41:54;13.43;;;8.40;;
5688;SDS011;2869;50.432;8.680;2022-07-21T05:44:21;8.47;;;7.57;;
5688;SDS011;2869;50.432;8.680;2022-07-21T05:46:48;10.00;;;7.13;;
5688;SDS011;2869;50.432;8.680;2022-07-21T05:49:14;7.67;;;6.67;;
5688;SDS011;2869;50.432;8.680;2022-07-21T05:51:41;13.50;;;6.50;;
5688;SDS011;2869;50.432;8.680;2022-07-21T05:54:09;8.03;;;7.23;;
5688;SDS011;2869;50.432;8.680;2022-07-21T05:56:36;8.20;;;6.70;;
5688;SDS011;2869;50.432;8.680;2022-07-21T05:59:02;7.17;;;6.57;;
5688;SDS011;2869;50.432;8.680;2022-07-21T06:01:29;8.33;;;6.70;;
5688;SDS011;2869;50.432;8.680;2022-07-21T06:03:56;10.20;;;7.20;;
5688;SDS011;2869;50.432;8.680;2022-07-21T06:06:22;11.70;;;7.50;;
5688;SDS011;2869;50.432;8.680;2022-07-21T06:08:49;8.30;;;7.10;;
5688;SDS011;2869;50.432;8.680;2022-07-21T06:11:19;11.50;;;7.13;;
5688;SDS011;2869;50.432;8.680;2022-07-21T06:13:46;9.60;;;6.60;;
5688;SDS011;2869;50.432;8.680;2022-07-21T06:16:14;9.10;;;7.30;;
5688;SDS011;2869;50.432;8.680;2022-07-21T06:18:41;7.03;;;6.33;;
5688;SDS011;2869;50.432;8.680;2022-07-21T06:21:07;7.00;;;6.30;;
5688;SDS011;2869;50.432;8.680;2022-07-21T06:23:34;9.33;;;7.20;;
5688;SDS011;2869;50.432;8.680;2022-07-21T06:26:00;8.87;;;6.67;;
5688;SDS011;2869;50.432;8.680;2022-07-21T06:28:29;8.13;;;7.10;;
5688;SDS011;2869;50.432;8.680;2022-07-21T06:30:55;9.87;;;7.83;;
5688;SDS011;2869;50.432;8.680;2022-07-21T06:33:22;9.13;;;7.73;;
5688;SDS011;2869;50.432;8.680;2022-07-21T06:35:48;10.37;;;8.10;;
5688;SDS011;2869;50.432;8.680;2022-07-21T06:38:15;15.00;;;7.23;;
5688;SDS011;2869;50.432;8.680;2022-07-21T06:40:42;8.50;;;7.53;;
5688;SDS011;2869;50.432;8.680;2022-07-21T06:43:09;8.77;;;7.90;;
5688;SDS011;2869;50.432;8.680;2022-07-21T06:45:37;9.93;;;7.70;;
5688;SDS011;2869;50.432;8.680;2022-07-21T06:48:05;9.80;;;7.60;;
5688;SDS011;2869;50.432;8.680;2022-07-21T06:50:33;10.80;;;7.90;;
5688;SDS011;2869;50.432;8.680;2022-07-21T06:53:01;8.73;;;7.90;;
5688;SDS011;2869;50.432;8.680;2022-07-21T06:55:28;8.73;;;7.93;;
5688;SDS011;2869;50.432;8.680;2022-07-21T06:57:56;11.63;;;7.57;;
5688;SDS011;2869;50.432;8.680;2022-07-21T07:00:22;8.73;;;7.80;;
5688;SDS011;2869;50.432;8.680;2022-07-21T07:02:51;9.70;;;7.73;;
5688;SDS011;2869;50.432;8.680;2022-07-21T07:05:17;8.43;;;7.60;;
5688;SDS011;2869;50.432;8.680;2022-07-21T07:07:44;9.60;;;8.13;;
5688;SDS011;2869;50.432;8.680;2022-07-21T07:10:13;10.40;;;8.03;;
5688;SDS011;2869;50.432;8.680;2022-07-21T07:12:40;10.87;;;9.77;;
5688;SDS011;2869;50.432;8.680;2022-07-21T07:15:07;10.03;;;8.50;;
5688;SDS011;2869;50.432;8.680;2022-07-21T07:17:34;8.97;;;8.07;;
5688;SDS011;2869;50.432;8.680;2022-07-21T07:20:03;11.30;;;8.63;;
5688;SDS011;2869;50.432;8.680;2022-07-21T07:22:31;9.57;;;8.57;;
5688;SDS011;2869;50.432;8.680;2022-07-21T07:24:58;12.40;;;8.60;;
5688;SDS011;2869;50.432;8.680;2022-07-21T07:27:25;10.00;;;9.00;;
5688;SDS011;2869;50.432;8.680;2022-07-21T07:29:52;9.47;;;8.20;;
5688;SDS011;2869;50.432;8.680;2022-07-21T07:32:18;14.23;;;8.60;;
5688;SDS011;2869;50.432;8.680;2022-07-21T07:34:45;11.13;;;8.97;;
5688;SDS011;2869;50.432;8.680;2022-07-21T07:37:13;11.83;;;8.40;;
5688;SDS011;2869;50.432;8.680;2022-07-21T07:39:40;9.33;;;8.20;;
5688;SDS011;2869;50.432;8.680;2022-07-21T07:42:08;9.30;;;8.30;;
5688;SDS011;2869;50.432;8.680;2022-07-21T07:44:34;9.60;;;8.57;;
5688;SDS011;2869;50.432;8.680;2022-07-21T07:47:01;9.20;;;8.03;;
5688;SDS011;2869;50.432;8.680;2022-07-21T07:49:28;9.13;;;7.57;;
5688;SDS011;2869;50.432;8.680;2022-07-21T07:51:55;9.00;;;8.07;;
5688;SDS011;2869;50.432;8.680;2022-07-21T07:54:23;9.10;;;7.87;;
5688;SDS011;2869;50.432;8.680;2022-07-21T07:56:50;11.80;;;7.80;;
5688;SDS011;2869;50.432;8.680;2022-07-21T07:59:17;11.53;;;8.30;;
5688;SDS011;2869;50.432;8.680;2022-07-21T08:01:43;9.63;;;8.63;;
5688;SDS011;2869;50.432;8.680;2022-07-21T08:04:10;9.40;;;8.37;;
5688;SDS011;2869;50.432;8.680;2022-07-21T08:06:39;10.80;;;8.20;;
5688;SDS011;2869;50.432;8.680;2022-07-21T08:09:06;8.00;;;7.20;;
5688;SDS011;2869;50.432;8.680;2022-07-21T08:11:34;10.70;;;7.13;;
5688;SDS011;2869;50.432;8.680;2022-07-21T08:14:01;9.13;;;7.60;;
5688;SDS011;2869;50.432;8.680;2022-07-21T08:16:27;11.80;;;7.00;;
5688;SDS011;2869;50.432;8.680;2022-07-21T08:18:54;8.27;;;7.47;;
5688;SDS011;2869;50.432;8.680;2022-07-21T08:21:20;9.50;;;7.77;;
5688;SDS011;2869;50.432;8.680;2022-07-21T08:23:49;9.17;;;7.50;;
5688;SDS011;2869;50.432;8.680;2022-07-21T08:26:16;8.53;;;7.20;;
5688;SDS011;2869;50.432;8.680;2022-07-21T08:28:44;8.13;;;7.30;;
5688;SDS011;2869;50.432;8.680;2022-07-21T08:31:10;9.20;;;7.30;;
5688;SDS011;2869;50.432;8.680;2022-07-21T08:33:37;9.00;;;7.00;;
5688;SDS011;2869;50.432;8.680;2022-07-21T08:36:04;8.17;;;7.37;;
5688;SDS011;2869;50.432;8.680;2022-07-21T08:38:31;8.47;;;7.13;;
5688;SDS011;2869;50.432;8.680;2022-07-21T08:40:58;8.60;;;7.27;;
5688;SDS011;2869;50.432;8.680;2022-07-21T08:43:24;7.60;;;6.80;;
5688;SDS011;2869;50.432;8.680;2022-07-21T08:45:53;7.63;;;6.77;;
5688;SDS011;2869;50.432;8.680;2022-07-21T08:48:22;7.27;;;6.57;;
5688;SDS011;2869;50.432;8.680;2022-07-21T08:50:50;7.00;;;6.40;;
5688;SDS011;2869;50.432;8.680;2022-07-21T08:53:17;6.73;;;5.70;;
5688;SDS011;2869;50.432;8.680;2022-07-21T08:55:44;7.30;;;6.40;;
5688;SDS011;2869;50.432;8.680;2022-07-21T08:58:11;11.23;;;6.07;;
5688;SDS011;2869;50.432;8.680;2022-07-21T09:00:39;7.20;;;5.90;;
5688;SDS011;2869;50.432;8.680;2022-07-21T09:03:10;6.33;;;5.60;;
5688;SDS011;2869;50.432;8.680;2022-07-21T09:05:38;6.17;;;5.57;;
5688;SDS011;2869;50.432;8.680;2022-07-21T09:08:05;5.97;;;5.30;;
5688;SDS011;2869;50.432;8.680;2022-07-21T09:10:32;9.30;;;6.57;;
5688;SDS011;2869;50.432;8.680;2022-07-21T09:13:00;6.33;;;5.30;;
5688;SDS011;2869;50.432;8.680;2022-07-21T09:15:29;5.67;;;5.13;;
5688;SDS011;2869;50.432;8.680;2022-07-21T09:18:07;9.03;;;5.47;;
5688;SDS011;2869;50.432;8.680;2022-07-21T09:20:39;9.20;;;5.20;;
5688;SDS011;2869;50.432;8.680;2022-07-21T09:23:14;6.60;;;5.80;;
5688;SDS011;2869;50.432;8.680;2022-07-21T09:25:42;6.50;;;5.90;;
5688;SDS011;2869;50.432;8.680;2022-07-21T09:28:11;6.43;;;5.73;;
5688;SDS011;2869;50.432;8.680;2022-07-21T09:30:51;6.77;;;5.60;;
5688;SDS011;2869;50.432;8.680;2022-07-21T09:33:23;6.23;;;5.57;;
5688;SDS011;2869;50.432;8.680;2022-07-21T09:36:01;6.03;;;5.50;;
5688;SDS011;2869;50.432;8.680;2022-07-21T09:38:30;7.93;;;6.00;;
5688;SDS011;2869;50.432;8.680;2022-07-21T09:41:05;5.53;;;5.03;;
5688;SDS011;2869;50.432;8.680;2022-07-21T09:43:34;11.70;;;5.87;;
5688;SDS011;2869;50.432;8.680;2022-07-21T09:46:11;6.63;;;5.60;;
5688;SDS011;2869;50.432;8.680;2022-07-21T09:48:42;5.60;;;5.10;;
5688;SDS011;2869;50.432;8.680;2022-07-21T09:51:27;5.63;;;5.03;;
5688;SDS011;2869;50.432;8.680;2022-07-21T09:53:56;6.40;;;5.80;;
5688;SDS011;2869;50.432;8.680;2022-07-21T09:56:25;6.07;;;5.50;;
5688;SDS011;2869;50.432;8.680;2022-07-21T09:58:54;6.60;;;5.77;;
5688;SDS011;2869;50.432;8.680;2022-07-21T10:01:21;6.13;;;5.23;;
5688;SDS011;2869;50.432;8.680;2022-07-21T10:03:50;5.23;;;4.77;;
5688;SDS011;2869;50.432;8.680;2022-07-21T10:06:18;7.97;;;6.10;;
5688;SDS011;2869;50.432;8.680;2022-07-21T10:08:46;6.63;;;5.93;;
5688;SDS011;2869;50.432;8.680;2022-07-21T10:11:13;7.17;;;5.70;;
5688;SDS011;2869;50.432;8.680;2022-07-21T10:13:40;7.03;;;5.73;;
5688;SDS011;2869;50.432;8.680;2022-07-21T10:16:08;5.73;;;5.13;;
5688;SDS011;2869;50.432;8.680;2022-07-21T10:18:37;5.80;;;5.30;;
5688;SDS011;2869;50.432;8.680;2022-07-21T10:21:17;7.27;;;5.93;;
5688;SDS011;2869;50.432;8.680;2022-07-21T10:23:52;9.90;;;5.50;;
5688;SDS011;2869;50.432;8.680;2022-07-21T10:26:20;6.60;;;6.10;;
5688;SDS011;2869;50.432;8.680;2022-07-21T10:28:47;7.07;;;6.07;;
5688;SDS011;2869;50.432;8.680;2022-07-21T10:31:15;7.37;;;5.57;;
5688;SDS011;2869;50.432;8.680;2022-07-21T10:33:57;5.43;;;4.93;;
5688;SDS011;2869;50.432;8.680;2022-07-21T10:36:40;8.83;;;5.27;;
5688;SDS011;2869;50.432;8.680;2022-07-21T10:39:21;5.37;;;4.87;;
5688;SDS011;2869;50.432;8.680;2022-07-21T10:41:55;7.63;;;5.30;;
5688;SDS011;2869;50.432;8.680;2022-07-21T10:44:40;8.43;;;5.77;;
5688;SDS011;2869;50.432;8.680;2022-07-21T10:47:13;10.13;;;5.60;;
5688;SDS011;2869;50.432;8.680;2022-07-21T10:49:47;5.67;;;5.10;;
5688;SDS011;2869;50.432;8.680;2022-07-21T10:55:26;8.63;;;5.60;;
5688;SDS011;2869;50.432;8.680;2022-07-21T10:58:14;7.57;;;5.70;;
5688;SDS011;2869;50.432;8.680;2022-07-21T11:00:43;7.20;;;5.93;;
5688;SDS011;2869;50.432;8.680;2022-07-21T11:03:22;8.53;;;5.40;;
5688;SDS011;2869;50.432;8.680;2022-07-21T11:08:45;6.50;;;5.90;;
5688;SDS011;2869;50.432;8.680;2022-07-21T11:11:13;6.43;;;5.60;;
5688;SDS011;2869;50.432;8.680;2022-07-21T11:14:00;7.20;;;6.50;;
5688;SDS011;2869;50.432;8.680;2022-07-21T11:19:31;7.13;;;5.30;;
5688;SDS011;2869;50.432;8.680;2022-07-21T11:22:01;5.23;;;4.77;;
5688;SDS011;2869;50.432;8.680;2022-07-21T11:24:32;6.70;;;5.50;;
5688;SDS011;2869;50.432;8.680;2022-07-21T11:27:00;6.13;;;5.53;;
5688;SDS011;2869;50.432;8.680;2022-07-21T11:29:28;10.43;;;5.30;;
5688;SDS011;2869;50.432;8.680;2022-07-21T11:31:55;6.47;;;5.87;;
5688;SDS011;2869;50.432;8.680;2022-07-21T11:34:23;4.77;;;4.37;;
5688;SDS011;2869;50.432;8.680;2022-07-21T11:36:57;10.27;;;5.10;;
5688;SDS011;2869;50.432;8.680;2022-07-21T11:39:25;5.90;;;5.30;;
5688;SDS011;2869;50.432;8.680;2022-07-21T11:41:54;5.50;;;5.00;;
5688;SDS011;2869;50.432;8.680;2022-07-21T11:44:26;7.43;;;5.10;;
5688;SDS011;2869;50.432;8.680;2022-07-21T11:46:54;7.90;;;5.27;;
5688;SDS011;2869;50.432;8.680;2022-07-21T11:49:21;6.47;;;4.23;;
5688;SDS011;2869;50.432;8.680;2022-07-21T11:51:50;5.63;;;5.03;;
5688;SDS011;2869;50.432;8.680;2022-07-21T11:54:24;10.23;;;4.93;;
5688;SDS011;2869;50.432;8.680;2022-07-21T11:56:55;5.50;;;5.00;;
5688;SDS011;2869;50.432;8.680;2022-07-21T11:59:22;4.87;;;4.47;;
5688;SDS011;2869;50.432;8.680;2022-07-21T12:01:50;5.50;;;5.00;;
5688;SDS011;2869;50.432;8.680;2022-07-21T12:04:28;5.13;;;4.63;;
5688;SDS011;2869;50.432;8.680;2022-07-21T12:07:01;5.00;;;4.50;;
5688;SDS011;2869;50.432;8.680;2022-07-21T12:09:28;7.30;;;4.90;;
5688;SDS011;2869;50.432;8.680;2022-07-21T12:11:58;5.23;;;4.80;;
5688;SDS011;2869;50.432;8.680;2022-07-21T12:17:11;6.10;;;5.33;;
5688;SDS011;2869;50.432;8.680;2022-07-21T12:19:38;7.23;;;4.83;;
5688;SDS011;2869;50.432;8.680;2022-07-21T12:22:05;6.87;;;4.60;;
5688;SDS011;2869;50.432;8.680;2022-07-21T12:24:52;5.00;;;4.30;;
5688;SDS011;2869;50.432;8.680;2022-07-21T12:27:22;7.03;;;4.10;;
5688;SDS011;2869;50.432;8.680;2022-07-21T12:29:49;4.37;;;3.80;;
5688;SDS011;2869;50.432;8.680;2022-07-21T12:35:20;4.00;;;3.60;;
5688;SDS011;2869;50.432;8.680;2022-07-21T12:37:53;5.03;;;4.40;;
5688;SDS011;2869;50.432;8.680;2022-07-21T12:40:25;4.10;;;3.80;;
5688;SDS011;2869;50.432;8.680;2022-07-21T12:43:03;8.80;;;5.30;;
5688;SDS011;2869;50.432;8.680;2022-07-21T12:45:45;5.00;;;3.90;;
5688;SDS011;2869;50.432;8.680;2022-07-21T12:48:16;4.50;;;3.97;;
5688;SDS011;2869;50.432;8.680;2022-07-21T12:50:56;5.63;;;4.33;;
5688;SDS011;2869;50.432;8.680;2022-07-21T12:53:31;4.40;;;4.00;;
5688;SDS011;2869;50.432;8.680;2022-07-21T12:55:59;5.90;;;4.33;;
5688;SDS011;2869;50.432;8.680;2022-07-21T12:58:27;4.17;;;3.87;;
5688;SDS011;2869;50.432;8.680;2022-07-21T13:00:54;5.80;;;3.90;;
5688;SDS011;2869;50.432;8.680;2022-07-21T13:03:21;4.73;;;3.97;;
5688;SDS011;2869;50.432;8.680;2022-07-21T13:05:48;4.30;;;3.60;;
5688;SDS011;2869;50.432;8.680;2022-07-21T13:08:14;6.63;;;4.30;;
5688;SDS011;2869;50.432;8.680;2022-07-21T13:10:41;6.13;;;4.30;;
5688;SDS011;2869;50.432;8.680;2022-07-21T13:13:08;5.60;;;4.20;;
5688;SDS011;2869;50.432;8.680;2022-07-21T13:15:36;7.93;;;4.70;;
5688;SDS011;2869;50.432;8.680;2022-07-21T13:18:02;4.43;;;4.03;;
5688;SDS011;2869;50.432;8.680;2022-07-21T13:20:29;5.73;;;4.60;;
5688;SDS011;2869;50.432;8.680;2022-07-21T13:22:56;7.17;;;4.50;;
5688;SDS011;2869;50.432;8.680;2022-07-21T13:25:23;6.10;;;4.53;;
5688;SDS011;2869;50.432;8.680;2022-07-21T13:27:50;4.30;;;4.00;;
5688;SDS011;2869;50.432;8.680;2022-07-21T13:30:17;8.17;;;4.97;;
5688;SDS011;2869;50.432;8.680;2022-07-21T13:32:45;4.70;;;4.20;;
5688;SDS011;2869;50.432;8.680;2022-07-21T13:35:12;7.40;;;4.70;;
5688;SDS011;2869;50.432;8.680;2022-07-21T13:37:39;6.33;;;4.40;;
5688;SDS011;2869;50.432;8.680;2022-07-21T13:40:06;6.07;;;4.63;;
5688;SDS011;2869;50.432;8.680;2022-07-21T13:42:34;7.30;;;4.67;;
5688;SDS011;2869;50.432;8.680;2022-07-21T13:45:00;6.60;;;5.00;;
5688;SDS011;2869;50.432;8.680;2022-07-21T13:47:27;6.03;;;5.00;;
5688;SDS011;2869;50.432;8.680;2022-07-21T13:49:55;6.33;;;5.70;;
5688;SDS011;2869;50.432;8.680;2022-07-21T13:52:22;7.33;;;5.17;;
5688;SDS011;2869;50.432;8.680;2022-07-21T13:54:48;6.87;;;5.17;;
5688;SDS011;2869;50.432;8.680;2022-07-21T13:57:15;7.00;;;5.47;;
5688;SDS011;2869;50.432;8.680;2022-07-21T13:59:41;6.60;;;5.03;;
5688;SDS011;2869;50.432;8.680;2022-07-21T14:02:09;6.93;;;5.30;;
5688;SDS011;2869;50.432;8.680;2022-07-21T14:04:35;6.23;;;5.50;;
5688;SDS011;2869;50.432;8.680;2022-07-21T14:07:03;5.93;;;5.10;;
5688;SDS011;2869;50.432;8.680;2022-07-21T14:09:30;7.97;;;5.60;;
5688;SDS011;2869;50.432;8.680;2022-07-21T14:11:57;5.57;;;5.10;;
5688;SDS011;2869;50.432;8.680;2022-07-21T14:14:23;5.73;;;4.87;;
5688;SDS011;2869;50.432;8.680;2022-07-21T14:16:51;10.67;;;6.00;;
5688;SDS011;2869;50.432;8.680;2022-07-21T14:19:19;7.60;;;5.10;;
5688;SDS011;2869;50.432;8.680;2022-07-21T14:21:46;5.97;;;5.38;;
5688;SDS011;2869;50.432;8.680;2022-07-21T14:24:15;5.53;;;5.07;;
5688;SDS011;2869;50.432;8.680;2022-07-21T14:26:59;6.50;;;5.80;;
5688;SDS011;2869;50.432;8.680;2022-07-21T14:29:26;6.70;;;6.10;;
5688;SDS011;2869;50.432;8.680;2022-07-21T14:31:53;6.17;;;5.53;;
5688;SDS011;2869;50.432;8.680;2022-07-21T14:34:20;9.43;;;6.00;;
5688;SDS011;2869;50.432;8.680;2022-07-21T14:36:46;6.57;;;5.90;;
5688;SDS011;2869;50.432;8.680;2022-07-21T14:39:15;6.50;;;5.83;;
5688;SDS011;2869;50.432;8.680;2022-07-21T14:41:41;6.50;;;5.87;;
5688;SDS011;2869;50.432;8.680;2022-07-21T14:44:09;8.30;;;6.00;;
5688;SDS011;2869;50.432;8.680;2022-07-21T14:46:36;7.00;;;5.67;;
5688;SDS011;2869;50.432;8.680;2022-07-21T14:49:03;6.30;;;5.33;;
5688;SDS011;2869;50.432;8.680;2022-07-21T14:51:30;7.37;;;5.73;;
5688;SDS011;2869;50.432;8.680;2022-07-21T14:53:56;7.87;;;6.30;;
5688;SDS011;2869;50.432;8.680;2022-07-21T14:56:24;8.13;;;5.93;;
5688;SDS011;2869;50.432;8.680;2022-07-21T14:58:51;6.10;;;5.60;;
5688;SDS011;2869;50.432;8.680;2022-07-21T15:01:18;9.03;;;6.73;;
5688;SDS011;2869;50.432;8.680;2022-07-21T15:03:44;6.67;;;6.07;;
5688;SDS011;2869;50.432;8.680;2022-07-21T15:06:11;7.70;;;5.80;;
5688;SDS011;2869;50.432;8.680;2022-07-21T15:08:38;6.53;;;5.63;;
5688;SDS011;2869;50.432;8.680;2022-07-21T15:11:04;7.17;;;6.40;;
5688;SDS011;2869;50.432;8.680;2022-07-21T15:13:32;8.30;;;5.90;;
5688;SDS011;2869;50.432;8.680;2022-07-21T15:15:59;6.90;;;5.93;;
5688;SDS011;2869;50.432;8.680;2022-07-21T15:18:25;8.30;;;6.10;;
5688;SDS011;2869;50.432;8.680;2022-07-21T15:20:52;8.03;;;6.80;;
5688;SDS011;2869;50.432;8.680;2022-07-21T15:23:19;6.23;;;5.63;;
5688;SDS011;2869;50.432;8.680;2022-07-21T15:25:45;7.90;;;6.00;;